Time;durP1;ratioP1;P1;durP2;ratioP2;P2;SDS_P1;SDS_P2;PMS_P1;PMS_P2;Temp;Humidity;BMP_temperature;BMP_pressure;BME280_temperature;BME280_humidity;BME280_pressure;Samples;Min_cycle;Max_cycle;Signal;HPM_P1;HPM_P2
2022/08/07 00:01:21;;;;;;;0.73;0.55;;;14.70;79.80;;;14.46;53.47;97808.66;5021271;28;20069;-40
2022/08/07 00:03:46;;;;;;;0.88;0.60;;;14.70;79.90;;;14.45;54.05;97809.63;5018266;28;20120;-40
2022/08/07 00:06:13;;;;;;;0.73;0.57;;;14.60;80.50;;;14.37;54.31;97801.13;5015349;28;20045;-39
2022/08/07 00:08:39;;;;;;;1.20;0.77;;;14.60;80.90;;;14.39;53.97;97804.56;5018283;28;20039;-40
2022/08/07 00:11:05;;;;;;;0.85;0.60;;;14.50;80.40;;;14.38;54.96;97802.88;5016695;28;20390;-39
2022/08/07 00:13:32;;;;;;;1.63;0.77;;;14.50;81.40;;;14.35;55.39;97806.50;5016715;28;20208;-41
2022/08/07 00:15:59;;;;;;;1.10;0.80;;;14.50;81.80;;;14.32;55.10;97799.56;5011925;28;20059;-40
2022/08/07 00:18:28;;;;;;;4.20;0.70;;;14.50;81.90;;;14.29;53.23;97804.16;5017812;28;20033;-40
2022/08/07 00:21:01;;;;;;;1.35;0.70;;;14.50;79.80;;;14.27;54.20;97806.88;4999816;28;20022;-40
2022/08/07 00:23:28;;;;;;;0.85;0.52;;;14.50;80.50;;;14.23;55.47;97801.75;5017599;28;20431;-40
2022/08/07 00:25:53;;;;;;;1.23;0.70;;;14.50;81.60;;;14.19;56.54;97798.38;4997957;28;20552;-39
2022/08/07 00:28:20;;;;;;;0.85;0.70;;;14.40;82.70;;;14.12;57.37;97797.81;5009892;28;20397;-40
2022/08/07 00:30:46;;;;;;;4.35;0.80;;;14.40;83.40;;;13.98;58.01;97780.78;5017954;28;20028;-39
2022/08/07 00:33:12;;;;;;;1.67;0.80;;;14.30;84.00;;;14.07;58.11;97791.84;5018039;28;20037;-40
2022/08/07 00:35:38;;;;;;;2.47;1.10;;;14.30;84.20;;;14.05;58.12;97796.38;5016232;28;20043;-40
2022/08/07 00:38:04;;;;;;;1.05;0.80;;;14.30;84.10;;;14.04;57.52;97796.44;5017132;28;20140;-40
2022/08/07 00:40:30;;;;;;;1.25;0.93;;;14.20;83.70;;;14.03;57.24;97797.34;5017870;28;20508;-40
2022/08/07 00:42:56;;;;;;;1.38;0.98;;;14.20;83.40;;;13.87;56.86;97776.84;5016704;28;20047;-40
2022/08/07 00:45:22;;;;;;;1.10;0.80;;;14.20;83.30;;;14.00;57.27;97800.13;5015986;28;20034;-40
2022/08/07 00:47:49;;;;;;;1.08;0.90;;;14.20;83.70;;;14.00;56.81;97803.66;5016191;28;20053;-40
2022/08/07 00:50:16;;;;;;;1.73;0.90;;;14.20;83.40;;;14.00;56.53;97801.00;5011993;28;20021;-39
2022/08/07 00:52:42;;;;;;;1.33;1.00;;;14.20;83.00;;;14.01;56.34;97804.53;5017307;28;20094;-39
2022/08/07 00:55:08;;;;;;;1.30;1.00;;;14.20;82.80;;;13.94;57.01;97793.31;5012473;28;20493;-39
2022/08/07 00:57:34;;;;;;;1.75;1.00;;;14.20;83.50;;;13.93;58.10;97803.06;5015681;28;20041;-40
2022/08/07 01:00:04;;;;;;;2.78;1.30;;;14.10;84.40;;;13.88;59.62;97801.56;5015543;28;20025;-39
2022/08/07 01:02:30;;;;;;;1.58;0.90;;;14.10;85.70;;;13.83;60.11;97796.44;5015300;28;20378;-40
2022/08/07 01:04:57;;;;;;;1.63;0.95;;;14.00;85.90;;;13.82;60.43;97802.69;4997392;28;20048;-40
2022/08/07 01:07:23;;;;;;;2.45;1.02;;;14.00;86.40;;;13.79;60.93;97799.31;5013181;28;20099;-39
2022/08/07 01:09:49;;;;;;;3.15;1.02;;;14.00;86.70;;;13.72;60.04;97796.91;5011224;28;20035;-39
2022/08/07 01:12:16;;;;;;;2.03;1.10;;;13.90;86.00;;;13.71;60.62;97797.84;5011569;28;20033;-40
2022/08/07 01:14:42;;;;;;;1.25;0.82;;;13.90;86.60;;;13.67;60.89;97796.25;4989715;28;20033;-40
2022/08/07 01:17:08;;;;;;;2.97;0.95;;;13.80;86.60;;;13.64;61.28;97799.03;5009354;28;20065;-41
2022/08/07 01:19:35;;;;;;;2.10;1.10;;;13.80;86.90;;;13.62;61.47;97797.38;5006771;28;20045;-39
2022/08/07 01:22:02;;;;;;;1.63;0.80;;;13.80;87.10;;;13.58;61.68;97794.00;4999096;28;20551;-40
2022/08/07 01:24:29;;;;;;;1.33;0.93;;;13.80;87.40;;;13.54;62.22;97790.59;4990727;28;20037;-40
2022/08/07 01:26:55;;;;;;;2.03;1.08;;;13.70;87.70;;;13.49;63.86;97789.94;5018337;22;20116;-48
2022/08/07 01:29:25;;;;;;;1.20;0.80;;;13.70;89.10;;;13.48;63.93;97780.28;4972473;28;20035;-44
2022/08/07 01:31:51;;;;;;;2.53;0.95;;;13.70;89.30;;;13.48;62.46;97782.09;4973510;28;20033;-45
2022/08/07 01:34:19;;;;;;;1.98;0.98;;;13.70;88.20;;;13.48;62.59;97790.03;4994573;28;20521;-47
2022/08/07 01:36:47;;;;;;;0.98;0.80;;;13.60;88.10;;;13.46;62.47;97783.91;4974093;28;20041;-44
2022/08/07 01:39:13;;;;;;;1.50;0.80;;;13.60;88.30;;;13.46;62.24;97791.84;5001558;28;20521;-44
2022/08/07 01:41:42;;;;;;;1.98;0.77;;;13.70;88.00;;;13.45;63.00;97787.50;4977251;28;20037;-45
2022/08/07 01:44:09;;;;;;;1.45;1.00;;;13.60;88.50;;;13.42;63.83;97796.41;4977902;28;20036;-44
2022/08/07 01:46:35;;;;;;;1.55;0.90;;;13.60;90.00;;;13.42;61.86;97792.91;4976754;28;20552;-44
2022/08/07 01:49:01;;;;;;;3.13;1.00;;;13.60;87.90;;;13.34;61.78;97780.00;4979164;28;20593;-47
2022/08/07 01:51:28;;;;;;;1.48;1.00;;;13.60;87.70;;;13.36;62.69;97780.81;4980578;28;20025;-44
2022/08/07 01:54:00;;;;;;;2.55;1.20;;;13.60;88.50;;;13.32;63.93;97773.91;4972938;28;20041;-44
2022/08/07 01:56:33;;;;;;;1.00;0.90;;;13.50;89.50;;;13.28;64.78;97777.56;4982176;28;20033;-45
2022/08/07 01:59:08;;;;;;;1.33;0.90;;;13.50;90.10;;;13.26;65.57;97774.13;4995578;28;20081;-45
2022/08/07 02:01:40;;;;;;;1.13;0.73;;;13.50;90.40;;;13.23;65.36;97780.41;4979968;28;20494;-45
2022/08/07 02:04:34;;;;;;;1.40;0.80;;;13.40;90.20;;;13.06;63.62;97751.97;4977087;28;20037;-44
2022/08/07 02:07:01;;;;;;;1.60;1.02;;;13.50;89.50;;;13.16;63.78;97768.34;4970702;28;20071;-45
2022/08/07 02:09:29;;;;;;;2.70;1.00;;;13.40;89.60;;;13.16;64.78;97777.16;4993985;28;20111;-44
2022/08/07 02:11:56;;;;;;;1.10;0.90;;;13.40;90.10;;;13.14;65.71;97772.88;4985258;28;20142;-44
2022/08/07 02:14:25;;;;;;;1.45;0.90;;;13.30;90.50;;;13.12;66.44;97766.78;4996876;28;20485;-46
2022/08/07 02:16:54;;;;;;;1.35;0.90;;;13.30;90.70;;;13.05;66.92;97755.56;4976804;28;20037;-45
2022/08/07 02:19:21;;;;;;;1.23;0.70;;;13.30;90.90;;;13.08;67.45;97759.84;4972735;28;20087;-44
2022/08/07 02:21:54;;;;;;;1.15;0.70;;;13.30;91.10;;;13.11;66.24;97765.03;4974482;28;20056;-44
2022/08/07 02:24:21;;;;;;;1.92;0.93;;;13.30;90.80;;;13.10;64.41;97766.84;4973874;28;20034;-45
2022/08/07 02:26:49;;;;;;;4.70;1.00;;;13.40;90.20;;;13.09;64.99;97759.81;4992733;28;20046;-46
2022/08/07 02:29:15;;;;;;;1.10;0.80;;;13.40;90.30;;;13.10;65.62;97760.66;4980911;28;20033;-44
2022/08/07 02:31:42;;;;;;;1.88;0.80;;;13.30;90.60;;;13.05;65.92;97755.56;4996126;28;20038;-47
2022/08/07 02:34:09;;;;;;;1.02;0.68;;;13.30;90.70;;;13.04;66.46;97756.47;4975133;28;20200;-46
2022/08/07 02:36:37;;;;;;;0.70;0.65;;;13.30;90.90;;;13.02;66.49;97753.03;4988744;28;20033;-49
2022/08/07 02:39:04;;;;;;;0.77;0.70;;;13.30;90.90;;;13.02;66.58;97749.53;4995226;28;20095;-48
2022/08/07 02:41:31;;;;;;;1.30;0.80;;;13.30;91.00;;;13.02;67.49;97753.03;4974221;28;20038;-47
2022/08/07 02:43:59;;;;;;;1.75;1.00;;;13.30;91.20;;;13.01;68.71;97753.97;4992492;28;20234;-48
2022/08/07 02:46:26;;;;;;;1.52;0.90;;;13.20;91.70;;;12.97;68.59;97750.59;4995463;28;20112;-48
2022/08/07 02:48:52;;;;;;;1.23;0.90;;;13.20;91.70;;;12.94;69.00;97753.34;4994849;28;20057;-46
2022/08/07 02:51:22;;;;;;;1.30;0.90;;;13.20;91.80;;;12.91;68.53;97757.91;4989502;28;20240;-44
2022/08/07 02:53:53;;;;;;;2.17;1.02;;;13.20;91.70;;;12.89;68.15;97757.13;4979591;28;20072;-48
2022/08/07 02:56:20;;;;;;;1.00;0.80;;;13.10;91.60;;;12.89;68.49;97754.47;4977410;28;20038;-45
2022/08/07 02:58:49;;;;;;;1.30;0.80;;;13.10;91.70;;;12.80;68.81;97743.31;4977825;28;20030;-51
2022/08/07 03:01:16;;;;;;;0.73;0.73;;;13.10;91.90;;;12.77;69.53;97742.59;4978319;28;20512;-44
2022/08/07 03:03:42;;;;;;;1.83;0.93;;;13.10;92.10;;;12.78;69.21;97753.13;4976514;28;20033;-46
2022/08/07 03:06:09;;;;;;;1.95;0.70;;;13.00;92.00;;;12.75;69.58;97745.28;4974586;28;20964;-48
2022/08/07 03:08:36;;;;;;;1.77;0.70;;;13.00;92.20;;;12.72;69.95;97750.72;4981263;28;20437;-44
2022/08/07 03:11:02;;;;;;;0.82;0.60;;;13.00;92.40;;;12.68;70.02;97756.19;4980517;28;20022;-45
2022/08/07 03:13:28;;;;;;;3.67;0.75;;;13.00;92.40;;;12.69;71.66;97753.50;4997605;28;20053;-45
2022/08/07 03:15:54;;;;;;;1.95;0.63;;;12.90;92.90;;;12.66;71.29;97753.59;4979174;28;20029;-46
2022/08/07 03:18:21;;;;;;;1.33;0.80;;;12.90;92.90;;;12.66;71.61;97756.25;4969049;28;20533;-46
2022/08/07 03:20:47;;;;;;;1.05;0.65;;;12.90;93.00;;;12.63;71.18;97751.06;5000611;28;20828;-47
2022/08/07 03:23:14;;;;;;;1.13;0.70;;;12.90;92.90;;;12.59;71.32;97746.81;5000665;28;20673;-45
2022/08/07 03:25:40;;;;;;;1.10;0.80;;;12.80;92.90;;;12.59;71.35;97752.97;4975868;28;20077;-45
2022/08/07 03:28:15;;;;;;;2.60;1.00;;;12.80;93.00;;;12.58;71.92;97750.41;4998187;28;20029;-44
2022/08/07 03:30:42;;;;;;;0.60;0.60;;;12.90;93.30;;;12.56;71.82;97755.75;5003581;28;20037;-44
2022/08/07 03:33:09;;;;;;;2.25;0.80;;;12.80;93.20;;;12.57;72.73;97760.13;4995689;28;20026;-45
2022/08/07 03:35:36;;;;;;;1.33;0.70;;;12.80;93.50;;;12.54;74.21;97757.59;4970753;28;20046;-46
2022/08/07 03:38:06;;;;;;;1.00;0.65;;;12.80;94.10;;;12.51;73.60;97760.38;4980359;28;20041;-45
2022/08/07 03:40:32;;;;;;;1.70;0.88;;;12.80;94.30;;;12.46;73.74;97746.44;4982183;28;20034;-47
2022/08/07 03:42:59;;;;;;;1.23;0.80;;;12.80;94.10;;;12.50;75.07;97761.28;4991285;28;20501;-45
2022/08/07 03:45:27;;;;;;;2.50;0.80;;;12.70;94.90;;;12.46;74.62;97757.03;4981741;28;20070;-45
2022/08/07 03:47:53;;;;;;;1.85;0.73;;;12.70;94.30;;;12.51;74.90;97751.56;4994594;28;20287;-46
2022/08/07 03:50:20;;;;;;;1.95;0.80;;;12.70;94.50;;;12.39;74.57;97735.25;5000103;28;20038;-48
2022/08/07 03:52:47;;;;;;;1.27;0.80;;;12.80;94.50;;;12.44;74.86;97747.44;5000620;28;20226;-46
2022/08/07 03:55:13;;;;;;;1.83;1.00;;;12.70;94.50;;;12.46;75.21;97748.25;4974447;28;20084;-48
2022/08/07 03:57:40;;;;;;;1.95;0.73;;;12.70;94.60;;;12.46;75.67;97748.25;4992084;28;20561;-47
2022/08/07 04:00:08;;;;;;;1.40;0.80;;;12.70;94.80;;;12.48;77.20;97746.41;4996811;28;20037;-46
2022/08/07 04:02:34;;;;;;;1.00;0.80;;;12.70;95.40;;;12.47;78.83;97744.66;4998550;28;20045;-47
2022/08/07 04:05:00;;;;;;;1.38;0.80;;;12.70;96.00;;;12.44;79.50;97743.00;5001520;28;20022;-45
2022/08/07 04:07:25;;;;;;;1.38;0.80;;;12.70;96.30;;;12.41;78.76;97733.38;4993854;28;20030;-46
2022/08/07 04:09:52;;;;;;;1.17;1.08;;;12.70;96.10;;;12.39;78.80;97739.69;4999854;28;20034;-49
2022/08/07 04:12:18;;;;;;;1.77;0.90;;;12.70;96.20;;;12.39;79.47;97739.69;4992577;28;20025;-45
2022/08/07 04:14:44;;;;;;;1.73;0.80;;;12.70;96.40;;;12.41;79.98;97748.41;4997344;28;20038;-45
2022/08/07 04:17:11;;;;;;;1.88;0.90;;;12.70;96.70;;;12.39;80.34;97748.47;4996013;28;20111;-45
2022/08/07 04:19:40;;;;;;;1.45;0.90;;;12.70;96.90;;;12.44;80.15;97753.59;4995697;28;21626;-46
2022/08/07 04:22:07;;;;;;;1.30;1.00;;;12.70;97.00;;;12.46;81.08;97754.38;4997571;28;20065;-47
2022/08/07 04:24:34;;;;;;;0.63;0.63;;;12.70;97.30;;;12.50;81.25;97763.06;4978923;28;20124;-45
2022/08/07 04:27:01;;;;;;;0.88;0.80;;;12.70;97.50;;;12.54;81.11;97765.53;4979183;28;20034;-47
2022/08/07 04:29:27;;;;;;;1.92;1.00;;;12.80;97.50;;;12.60;81.18;97767.09;4992689;28;20345;-45
2022/08/07 04:31:54;;;;;;;2.67;1.10;;;12.90;97.60;;;12.68;81.57;97770.28;4998940;28;20101;-45
2022/08/07 04:34:22;;;;;;;1.33;0.80;;;12.90;97.80;;;12.73;81.94;97770.09;4996796;28;20041;-45
2022/08/07 04:36:47;;;;;;;0.85;0.80;;;13.00;98.00;;;12.76;82.83;97770.84;4994295;28;20041;-45
2022/08/07 04:39:13;;;;;;;0.82;0.80;;;13.00;98.40;;;12.83;82.89;97775.88;4998501;28;20038;-44
2022/08/07 04:41:39;;;;;;;1.05;0.95;;;13.10;98.60;;;12.88;82.86;97771.25;4980095;28;20163;-44
2022/08/07 04:44:05;;;;;;;1.13;1.00;;;13.10;98.60;;;12.93;82.82;97771.94;4993620;28;20050;-44
2022/08/07 04:47:02;;;;;;;1.75;1.10;;;13.20;98.70;;;12.98;82.94;97769.97;4994650;28;20148;-44
2022/08/07 04:49:52;;;;;;;1.77;1.02;;;13.20;98.90;;;13.05;83.12;97776.75;4983046;28;20069;-47
2022/08/07 04:52:38;;;;;;;1.08;0.93;;;13.30;99.10;;;13.15;82.84;97772.81;4978971;28;20041;-47
2022/08/07 04:55:22;;;;;;;1.10;1.00;;;13.40;99.10;;;13.21;81.50;97778.75;4995729;28;20432;-49
2022/08/07 04:58:18;;;;;;;1.17;0.95;;;13.50;98.80;;;13.36;82.12;97780.81;4970547;28;20025;-46
2022/08/07 05:00:55;;;;;;;1.42;0.98;;;13.60;99.00;;;13.46;83.98;97778.59;4974153;28;20525;-47
2022/08/07 05:03:29;;;;;;;1.60;0.80;;;13.70;99.90;;;13.49;84.13;97783.78;4978376;28;20253;-48
2022/08/07 05:06:16;;;;;;;1.85;1.00;;;13.70;99.90;;;13.53;83.49;97788.03;4993602;28;20038;-45
2022/08/07 05:08:59;;;;;;;1.10;1.00;;;13.80;99.90;;;13.57;82.97;97781.69;4980902;28;20140;-48
2022/08/07 05:11:34;;;;;;;1.75;1.15;;;13.80;99.70;;;13.67;82.43;97783.00;4992424;28;20058;-46
2022/08/07 05:14:09;;;;;;;3.53;0.90;;;13.90;99.70;;;13.69;82.72;97786.47;4974447;28;20262;-47
2022/08/07 05:16:39;;;;;;;1.38;0.93;;;14.00;99.80;;;13.77;82.95;97788.78;4975160;28;20072;-48
2022/08/07 05:19:13;;;;;;;0.70;0.70;;;14.00;99.90;;;13.81;82.18;97787.69;4972882;28;20030;-45
2022/08/07 05:21:48;;;;;;;1.85;1.60;;;14.10;99.80;;;13.92;82.14;97790.72;4997348;28;20509;-48
2022/08/07 05:24:16;;;;;;;2.22;1.42;;;14.20;99.90;;;14.02;81.43;97793.00;4979537;28;20034;-45
2022/08/07 05:26:43;;;;;;;1.80;1.38;;;14.30;99.70;;;14.08;81.77;97793.56;4979488;28;20050;-48
2022/08/07 05:29:10;;;;;;;1.38;1.10;;;14.40;99.80;;;14.15;80.71;97807.41;4978978;28;20021;-45
2022/08/07 05:31:39;;;;;;;1.48;0.90;;;14.50;99.50;;;14.15;79.55;97798.59;4997780;28;20109;-45
2022/08/07 05:34:09;;;;;;;1.55;1.17;;;14.50;99.10;;;14.13;77.62;97803.97;4992946;28;20518;-46
2022/08/07 05:36:39;;;;;;;1.33;1.23;;;14.50;98.50;;;14.11;77.05;97800.53;4977291;28;20026;-47
2022/08/07 05:39:05;;;;;;;1.42;1.10;;;14.50;98.20;;;14.19;75.94;97803.69;4995125;28;20031;-47
2022/08/07 05:41:31;;;;;;;1.88;1.20;;;14.50;97.90;;;14.22;73.00;97803.56;4992909;28;20503;-45
2022/08/07 05:43:57;;;;;;;1.17;1.00;;;14.50;97.00;;;14.29;73.16;97807.66;4995719;28;20192;-48
2022/08/07 05:46:23;;;;;;;2.35;2.10;;;14.60;96.90;;;14.42;77.24;97807.09;4976292;28;20066;-44
2022/08/07 05:48:51;;;;;;;1.85;1.30;;;14.70;98.30;;;14.53;75.42;97802.16;4991006;28;20026;-46
2022/08/07 05:51:18;;;;;;;2.17;1.20;;;14.80;97.90;;;14.61;72.99;97808.00;4992452;28;20490;-48
2022/08/07 05:53:45;;;;;;;2.75;1.20;;;14.90;97.10;;;14.74;73.06;97808.28;4979092;28;20065;-47
2022/08/07 05:56:12;;;;;;;0.80;0.80;;;15.00;97.00;;;14.88;73.10;97807.63;4979022;28;22867;-46
2022/08/07 05:58:40;;;;;;;3.55;1.80;;;15.20;96.90;;;15.01;74.90;97823.84;4993892;28;20041;-45
2022/08/07 06:01:09;;;;;;;3.83;1.38;;;15.30;97.60;;;15.19;74.84;97819.44;4994938;28;20115;-46
2022/08/07 06:03:38;;;;;;;3.40;1.90;;;15.40;97.80;;;15.34;73.97;97815.16;4976285;28;20501;-48
2022/08/07 06:06:05;;;;;;;3.58;2.10;;;15.60;97.40;;;15.50;75.48;97817.91;4977021;28;20041;-47
2022/08/07 06:08:32;;;;;;;3.65;1.98;;;15.70;97.90;;;15.64;76.83;97816.25;4980730;28;20417;-45
2022/08/07 06:10:58;;;;;;;2.30;1.98;;;15.90;98.50;;;15.80;77.77;97819.03;4979027;28;20029;-45
2022/08/07 06:13:24;;;;;;;2.47;2.20;;;16.10;98.70;;;15.98;77.92;97817.22;4996409;28;20029;-46
2022/08/07 06:15:50;;;;;;;3.13;2.00;;;16.20;99.00;;;16.11;77.13;97817.44;4977808;28;20323;-46
2022/08/07 06:18:18;;;;;;;3.15;2.75;;;16.30;98.90;;;16.26;76.91;97814.91;4986739;28;20034;-46
2022/08/07 06:20:44;;;;;;;3.88;2.67;;;16.50;98.80;;;16.35;76.61;97817.94;4983626;28;20081;-47
2022/08/07 06:23:11;;;;;;;4.50;2.13;;;16.60;98.70;;;16.48;76.01;97823.47;5001955;28;20123;-48
2022/08/07 06:25:40;;;;;;;2.88;2.05;;;16.70;98.50;;;16.62;75.49;97817.41;4980036;28;20026;-47
2022/08/07 06:28:08;;;;;;;1.90;1.80;;;16.80;98.40;;;16.76;75.02;97808.63;4995065;28;20028;-46
2022/08/07 06:30:38;;;;;;;4.32;2.03;;;17.00;98.30;;;16.87;74.26;97811.59;4999613;28;20022;-46
2022/08/07 06:33:05;;;;;;;5.45;2.10;;;17.10;98.00;;;17.00;73.98;97819.75;5001113;28;20064;-47
2022/08/07 06:35:34;;;;;;;4.00;2.50;;;17.20;98.00;;;17.08;73.04;97809.50;4979496;28;20076;-44
2022/08/07 06:38:00;;;;;;;3.17;2.50;;;17.30;97.60;;;17.16;72.82;97812.63;4988974;28;20029;-47
2022/08/07 06:40:38;;;;;;;2.88;2.00;;;17.40;97.50;;;17.27;73.44;97806.66;4986351;28;20268;-46
2022/08/07 06:43:08;;;;;;;2.40;2.00;;;17.50;97.60;;;17.34;73.15;97802.69;4976340;28;20030;-44
2022/08/07 06:45:34;;;;;;;1.83;1.60;;;17.60;97.70;;;17.53;72.68;97806.94;4993078;28;20030;-48
2022/08/07 06:48:00;;;;;;;2.30;1.92;;;17.70;97.70;;;17.69;72.79;97806.91;4991407;28;20037;-45
2022/08/07 06:50:28;;;;;;;3.25;2.60;;;17.90;97.70;;;17.81;73.03;97810.66;4974535;28;20033;-45
2022/08/07 06:52:55;;;;;;;3.15;1.90;;;18.00;97.80;;;17.94;72.03;97809.00;4978246;28;20030;-44
2022/08/07 06:55:28;;;;;;;2.60;1.70;;;18.10;97.50;;;18.09;71.49;97805.41;4978978;28;20041;-44
2022/08/07 06:58:00;;;;;;;3.22;2.20;;;18.20;97.40;;;18.20;70.43;97803.91;4994803;28;20026;-45
2022/08/07 07:00:35;;;;;;;2.20;2.00;;;18.30;97.00;;;18.30;70.17;97805.03;4970680;28;20038;-46
2022/08/07 07:03:02;;;;;;;2.85;2.55;;;18.50;97.00;;;18.44;70.65;97812.19;4975543;28;20038;-44
2022/08/07 07:05:28;;;;;;;4.90;2.40;;;18.60;97.10;;;18.53;70.43;97808.94;4991588;28;20893;-44
2022/08/07 07:07:54;;;;;;;2.67;2.35;;;18.70;97.10;;;18.70;69.90;97807.91;4992658;28;20353;-46
2022/08/07 07:10:32;;;;;;;2.88;2.22;;;18.80;96.90;;;18.74;70.37;97793.38;4991989;28;20279;-49
2022/08/07 07:13:05;;;;;;;4.45;1.90;;;19.00;97.00;;;19.01;68.98;97808.63;4992063;28;20076;-47
2022/08/07 07:15:40;;;;;;;3.20;2.05;;;19.10;96.80;;;19.15;67.64;97819.28;4989241;28;20044;-47
2022/08/07 07:18:38;;;;;;;3.50;2.20;;;19.20;96.40;;;19.26;67.02;97816.75;5002021;28;20034;-47
2022/08/07 07:21:18;;;;;;;4.28;2.10;;;19.40;95.90;;;19.39;67.47;97815.97;4973946;28;20076;-45
2022/08/07 07:23:44;;;;;;;2.90;2.00;;;19.50;96.10;;;19.54;66.70;97819.41;4962907;28;20037;-45
2022/08/07 07:26:15;;;;;;;2.53;2.03;;;19.60;96.00;;;19.65;65.57;97817.75;5000376;22;20096;-47
2022/08/07 07:28:50;;;;;;;2.97;2.40;;;19.70;95.50;;;19.73;65.29;97817.25;4995764;28;20048;-46
2022/08/07 07:31:42;;;;;;;2.42;2.08;;;19.80;95.50;;;19.86;64.46;97811.94;4995366;28;20033;-49
2022/08/07 07:34:12;;;;;;;2.05;1.80;;;19.90;95.10;;;19.95;63.89;97813.97;4987003;28;20130;-45
2022/08/07 07:36:40;;;;;;;2.60;2.00;;;20.00;94.90;;;20.02;62.39;97807.22;4987670;28;20680;-47
2022/08/07 07:39:07;;;;;;;2.65;2.05;;;20.10;94.60;;;20.11;60.78;97807.56;4996901;28;20056;-46
2022/08/07 07:41:34;;;;;;;2.92;1.92;;;20.20;93.90;;;20.19;60.64;97808.75;4997936;28;20513;-47
2022/08/07 07:44:02;;;;;;;3.35;2.03;;;20.30;93.80;;;20.26;60.33;97805.63;4981289;28;20481;-48
2022/08/07 07:46:30;;;;;;;2.08;1.83;;;20.30;93.40;;;20.30;60.13;97791.94;4983897;28;20498;-47
2022/08/07 07:48:59;;;;;;;3.45;1.55;;;20.40;93.90;;;20.52;60.22;97795.78;4968829;28;20552;-47
2022/08/07 07:51:25;;;;;;;2.88;1.90;;;20.50;93.50;;;20.69;59.35;97782.06;4982125;28;20318;-45
2022/08/07 07:53:52;;;;;;;3.45;2.10;;;20.70;93.20;;;20.81;56.77;97791.03;4985633;28;20050;-47
2022/08/07 07:56:22;;;;;;;2.55;1.45;;;20.80;92.40;;;20.89;57.82;97790.47;4982988;28;20197;-46
2022/08/07 07:58:49;;;;;;;2.08;1.70;;;20.90;92.40;;;20.96;56.64;97781.00;4971322;28;20022;-46
2022/08/07 08:01:16;;;;;;;1.85;1.65;;;21.00;92.40;;;21.13;56.49;97788.66;4968595;28;20042;-47
2022/08/07 08:03:42;;;;;;;2.05;1.38;;;21.10;91.90;;;21.20;52.63;97788.22;4964048;28;20033;-46
2022/08/07 08:06:09;;;;;;;2.53;1.85;;;21.20;90.30;;;21.24;51.17;97797.75;4987501;28;20490;-46
2022/08/07 08:08:36;;;;;;;2.20;1.17;;;21.30;88.80;;;21.27;51.15;97797.53;4963086;28;20125;-47
2022/08/07 08:11:04;;;;;;;3.13;1.50;;;21.30;88.90;;;21.30;50.68;97789.25;4969264;28;20031;-46
2022/08/07 08:13:32;;;;;;;3.05;1.27;;;21.40;89.30;;;21.40;51.17;97792.09;4960302;28;20030;-47
2022/08/07 08:16:00;;;;;;;4.60;1.60;;;21.40;88.70;;;21.42;49.46;97774.06;4978655;28;20038;-47
2022/08/07 08:18:28;;;;;;;2.60;1.33;;;21.50;86.80;;;21.47;49.88;97793.41;4987020;28;20561;-47
2022/08/07 08:20:59;;;;;;;2.42;1.20;;;21.50;86.20;;;21.55;49.36;97785.59;4971026;28;20030;-47
2022/08/07 08:29:02;;;;;;;1.40;1.20;;;21.80;84.90;;;21.86;46.01;97770.72;4981704;28;20458;-46
2022/08/07 08:31:32;;;;;;;3.92;1.10;;;22.00;81.00;;;21.95;45.17;97779.00;4968836;28;20023;-46
2022/08/07 08:34:01;;;;;;;5.13;1.35;;;22.00;80.20;;;22.07;44.06;97783.44;4980527;28;20061;-47
2022/08/07 08:36:31;;;;;;;2.13;1.00;;;22.00;79.40;;;22.16;43.97;97780.03;4959729;28;20030;-46
2022/08/07 08:39:00;;;;;;;2.88;1.17;;;22.10;77.40;;;22.16;42.81;97773.81;4963438;28;20494;-47
2022/08/07 08:42:02;;;;;;;1.60;1.00;;;22.20;76.40;;;22.22;43.14;97781.41;4957922;28;20076;-45
2022/08/07 08:44:39;;;;;;;2.13;0.93;;;22.20;75.70;;;22.20;42.62;97781.53;4959982;28;20397;-47
2022/08/07 08:47:43;;;;;;;2.65;1.13;;;22.20;75.70;;;22.21;42.58;97783.22;4960046;28;20027;-46
2022/08/07 08:50:23;;;;;;;1.60;1.05;;;22.30;75.40;;;22.26;41.66;97775.69;4959275;28;20244;-46
2022/08/07 08:53:04;;;;;;;1.02;0.85;;;22.30;75.00;;;22.33;42.56;97784.13;4938617;28;20061;-46
2022/08/07 08:55:43;;;;;;;1.40;0.90;;;22.30;75.40;;;22.32;42.22;97778.88;4957822;28;20034;-46
2022/08/07 08:58:43;;;;;;;0.73;0.70;;;22.40;74.20;;;22.36;40.96;97783.00;4960862;28;20034;-46
2022/08/07 09:01:30;;;;;;;1.83;1.08;;;22.40;72.40;;;22.40;39.48;97785.34;4956972;28;20038;-46
2022/08/07 09:04:09;;;;;;;2.15;0.82;;;22.40;70.20;;;22.43;38.74;97774.38;4959363;28;20289;-47
2022/08/07 09:06:56;;;;;;;1.88;0.75;;;22.40;68.30;;;22.51;38.86;97783.66;4970619;28;20035;-45
2022/08/07 09:10:07;;;;;;;0.80;0.68;;;22.50;68.20;;;22.61;38.39;97782.78;4952788;28;20031;-45
2022/08/07 09:12:58;;;;;;;1.42;0.77;;;22.60;67.80;;;22.58;38.40;97758.00;4976924;28;20049;-46
2022/08/07 09:15:54;;;;;;;0.90;0.80;;;22.70;67.10;;;22.72;38.39;97771.19;4965566;28;20030;-47
2022/08/07 09:18:40;;;;;;;1.13;0.90;;;22.70;67.00;;;22.73;37.62;97772.03;4955243;28;20038;-45
2022/08/07 09:21:38;;;;;;;0.90;0.80;;;22.80;65.90;;;22.81;38.42;97774.97;4955135;28;20030;-48
2022/08/07 09:24:52;;;;;;;1.23;0.90;;;22.80;67.10;;;22.68;38.17;97769.69;4958425;28;20046;-45
2022/08/07 09:28:02;;;;;;;1.38;0.90;;;22.70;67.30;;;22.70;38.62;97767.72;4962481;28;20125;-46
2022/08/07 09:30:55;;;;;;;1.38;1.00;;;22.70;67.20;;;22.87;37.97;97779.81;4971749;28;20030;-46
2022/08/07 09:33:52;;;;;;;1.67;0.80;;;22.80;65.30;;;22.96;37.97;97775.53;4964449;28;20037;-47
2022/08/07 09:36:32;;;;;;;0.73;0.73;;;23.00;66.00;;;23.00;37.92;97771.59;4969347;28;20544;-48
2022/08/07 09:39:26;;;;;;;2.75;0.80;;;23.00;64.80;;;22.97;37.28;97772.72;4987333;28;20038;-48
2022/08/07 09:42:29;;;;;;;1.92;0.90;;;23.00;64.70;;;22.99;37.04;97760.00;4964269;28;20159;-45
2022/08/07 09:45:07;;;;;;;;;;;23.00;64.20;;;23.03;36.03;97774.06;4964015;28;20478;-45
2022/08/07 09:48:12;;;;;;;1.08;0.75;;;23.10;62.40;;;23.13;35.75;97772.38;4974677;28;19982;-45
2022/08/07 09:50:53;;;;;;;0.70;0.70;;;23.10;61.90;;;23.23;36.13;97759.00;4967490;28;20120;-46
2022/08/07 09:53:22;;;;;;;1.85;0.60;;;23.20;61.80;;;23.37;35.12;97761.38;4986989;28;20038;-45
2022/08/07 09:56:26;;;;;;;1.75;0.93;;;23.30;61.00;;;23.44;33.28;97759.03;4975181;28;20105;-46
2022/08/07 09:59:09;;;;;;;0.88;0.70;;;23.40;57.70;;;23.42;34.16;97751.09;4973128;28;20030;-47
2022/08/07 10:02:04;;;;;;;1.15;0.80;;;23.50;58.40;;;23.33;33.88;97738.41;4989839;28;20436;-46
2022/08/07 10:04:44;;;;;;;2.30;0.80;;;23.40;58.30;;;23.48;34.06;97747.03;4970092;28;20176;-46
2022/08/07 10:07:24;;;;;;;2.67;0.73;;;23.50;58.80;;;23.52;33.37;97744.94;4963473;28;20106;-45
2022/08/07 10:10:28;;;;;;;0.82;0.70;;;23.50;57.80;;;23.49;33.63;97742.50;4992091;28;20574;-46
2022/08/07 10:13:27;;;;;;;1.13;0.80;;;23.50;56.80;;;23.47;33.65;97733.69;4979495;28;20045;-45
2022/08/07 10:16:11;;;;;;;0.80;0.75;;;23.50;57.00;;;23.49;33.42;97732.59;4971857;28;20045;-45
2022/08/07 10:19:20;;;;;;;0.70;0.50;;;23.50;57.40;;;23.64;32.89;97733.13;4973849;28;20038;-46
2022/08/07 10:22:25;;;;;;;1.00;0.70;;;23.60;57.90;;;23.72;33.17;97735.16;4965842;28;20033;-49
2022/08/07 10:25:12;;;;;;;2.97;0.63;;;23.70;56.80;;;23.78;32.67;97727.41;4979343;28;20034;-48
2022/08/07 10:28:50;;;;;;;2.50;0.88;;;23.80;56.60;;;23.73;32.15;97729.66;4970731;28;20041;-47
2022/08/07 10:31:33;;;;;;;1.60;0.70;;;23.80;55.20;;;23.76;32.25;97724.00;4914369;29;20342;-47
2022/08/07 10:34:35;;;;;;;1.15;0.60;;;23.80;55.70;;;23.75;32.69;97716.91;4973086;28;20369;-46
2022/08/07 10:37:40;;;;;;;2.17;0.63;;;23.80;55.80;;;23.79;32.43;97712.94;4985114;28;20038;-45
2022/08/07 10:40:37;;;;;;;0.80;0.70;;;23.80;55.50;;;23.80;32.12;97708.47;4971570;28;20277;-46
2022/08/07 10:43:27;;;;;;;1.30;0.63;;;23.80;55.60;;;23.80;32.20;97709.31;4972591;28;20038;-47
2022/08/07 10:45:59;;;;;;;1.73;0.77;;;23.80;55.20;;;23.85;32.35;97710.75;4991657;28;20049;-46
2022/08/07 10:48:47;;;;;;;1.75;0.60;;;23.80;55.30;;;23.86;32.32;97697.16;4974475;28;20031;-46
2022/08/07 10:51:52;;;;;;;1.80;0.73;;;23.90;55.60;;;24.01;32.24;97692.25;4968664;28;20027;-49